sensor_id;sensor_type;location;lat;lon;timestamp;P1;durP1;ratioP1;P2;durP2;ratioP2
82409;SDS011;72049;51.766;6.846;2023-09-08T00:01:35;7.53;;;5.10;;
82409;SDS011;72049;51.766;6.846;2023-09-08T00:04:00;9.23;;;5.32;;
82409;SDS011;72049;51.766;6.846;2023-09-08T00:06:32;8.52;;;5.38;;
82409;SDS011;72049;51.766;6.846;2023-09-08T00:09:06;6.57;;;4.68;;
82409;SDS011;72049;51.766;6.846;2023-09-08T00:11:31;7.25;;;5.07;;
82409;SDS011;72049;51.766;6.846;2023-09-08T00:13:57;7.85;;;5.00;;
82409;SDS011;72049;51.766;6.846;2023-09-08T00:16:31;8.45;;;5.22;;
82409;SDS011;72049;51.766;6.846;2023-09-08T00:18:57;7.95;;;4.90;;
82409;SDS011;72049;51.766;6.846;2023-09-08T00:21:26;9.18;;;5.55;;
82409;SDS011;72049;51.766;6.846;2023-09-08T00:23:51;7.53;;;5.25;;
82409;SDS011;72049;51.766;6.846;2023-09-08T00:26:17;8.52;;;5.05;;
82409;SDS011;72049;51.766;6.846;2023-09-08T00:28:47;9.35;;;5.22;;
82409;SDS011;72049;51.766;6.846;2023-09-08T00:31:12;8.23;;;4.90;;
82409;SDS011;72049;51.766;6.846;2023-09-08T00:33:41;7.65;;;5.13;;
82409;SDS011;72049;51.766;6.846;2023-09-08T00:36:09;7.13;;;4.95;;
82409;SDS011;72049;51.766;6.846;2023-09-08T00:38:40;9.57;;;5.75;;
82409;SDS011;72049;51.766;6.846;2023-09-08T00:41:11;8.00;;;5.10;;
82409;SDS011;72049;51.766;6.846;2023-09-08T00:43:43;7.15;;;4.65;;
82409;SDS011;72049;51.766;6.846;2023-09-08T00:46:12;8.02;;;5.40;;
82409;SDS011;72049;51.766;6.846;2023-09-08T00:48:44;12.27;;;5.45;;
82409;SDS011;72049;51.766;6.846;2023-09-08T00:51:09;8.82;;;4.85;;
82409;SDS011;72049;51.766;6.846;2023-09-08T00:53:38;7.78;;;5.05;;
82409;SDS011;72049;51.766;6.846;2023-09-08T00:56:04;9.10;;;5.68;;
82409;SDS011;72049;51.766;6.846;2023-09-08T00:58:30;10.30;;;5.43;;
82409;SDS011;72049;51.766;6.846;2023-09-08T01:00:56;10.45;;;5.30;;
82409;SDS011;72049;51.766;6.846;2023-09-08T01:03:25;9.98;;;5.13;;
82409;SDS011;72049;51.766;6.846;2023-09-08T01:05:51;9.50;;;5.57;;
82409;SDS011;72049;51.766;6.846;2023-09-08T01:08:17;9.27;;;5.57;;
82409;SDS011;72049;51.766;6.846;2023-09-08T01:10:43;8.68;;;5.28;;
82409;SDS011;72049;51.766;6.846;2023-09-08T01:13:10;8.77;;;5.60;;
82409;SDS011;72049;51.766;6.846;2023-09-08T01:15:38;8.20;;;5.45;;
82409;SDS011;72049;51.766;6.846;2023-09-08T01:18:04;8.90;;;5.38;;
82409;SDS011;72049;51.766;6.846;2023-09-08T01:23:21;9.27;;;5.35;;
82409;SDS011;72049;51.766;6.846;2023-09-08T01:25:59;7.80;;;5.30;;
82409;SDS011;72049;51.766;6.846;2023-09-08T01:28:26;9.25;;;5.45;;
82409;SDS011;72049;51.766;6.846;2023-09-08T01:30:53;10.38;;;5.70;;
82409;SDS011;72049;51.766;6.846;2023-09-08T01:33:19;10.43;;;5.95;;
82409;SDS011;72049;51.766;6.846;2023-09-08T01:35:44;8.13;;;5.28;;
82409;SDS011;72049;51.766;6.846;2023-09-08T01:38:10;8.52;;;5.65;;
82409;SDS011;72049;51.766;6.846;2023-09-08T01:40:39;10.45;;;5.47;;
82409;SDS011;72049;51.766;6.846;2023-09-08T01:43:07;8.90;;;5.57;;
82409;SDS011;72049;51.766;6.846;2023-09-08T01:45:32;10.05;;;5.63;;
82409;SDS011;72049;51.766;6.846;2023-09-08T01:47:58;8.30;;;5.50;;
82409;SDS011;72049;51.766;6.846;2023-09-08T01:50:24;9.18;;;5.93;;
82409;SDS011;72049;51.766;6.846;2023-09-08T01:52:50;7.30;;;5.45;;
82409;SDS011;72049;51.766;6.846;2023-09-08T01:55:16;9.90;;;6.18;;
82409;SDS011;72049;51.766;6.846;2023-09-08T01:57:45;9.82;;;6.30;;
82409;SDS011;72049;51.766;6.846;2023-09-08T02:00:18;9.18;;;6.35;;
82409;SDS011;72049;51.766;6.846;2023-09-08T02:02:44;8.60;;;5.93;;
82409;SDS011;72049;51.766;6.846;2023-09-08T02:05:10;9.23;;;6.05;;
82409;SDS011;72049;51.766;6.846;2023-09-08T02:07:35;10.35;;;6.00;;
82409;SDS011;72049;51.766;6.846;2023-09-08T02:10:01;9.98;;;6.03;;
82409;SDS011;72049;51.766;6.846;2023-09-08T02:12:29;7.95;;;5.43;;
82409;SDS011;72049;51.766;6.846;2023-09-08T02:14:55;9.80;;;6.45;;
82409;SDS011;72049;51.766;6.846;2023-09-08T02:17:23;9.93;;;6.13;;
82409;SDS011;72049;51.766;6.846;2023-09-08T02:19:48;10.15;;;6.38;;
82409;SDS011;72049;51.766;6.846;2023-09-08T02:22:14;10.27;;;6.25;;
82409;SDS011;72049;51.766;6.846;2023-09-08T02:24:39;8.38;;;5.97;;
82409;SDS011;72049;51.766;6.846;2023-09-08T02:27:07;10.40;;;6.50;;
82409;SDS011;72049;51.766;6.846;2023-09-08T02:32:01;11.68;;;6.80;;
82409;SDS011;72049;51.766;6.846;2023-09-08T02:34:26;11.35;;;6.53;;
82409;SDS011;72049;51.766;6.846;2023-09-08T02:36:52;9.75;;;6.03;;
82409;SDS011;72049;51.766;6.846;2023-09-08T02:39:22;11.50;;;6.25;;
82409;SDS011;72049;51.766;6.846;2023-09-08T02:41:51;13.07;;;6.70;;
82409;SDS011;72049;51.766;6.846;2023-09-08T02:44:20;9.55;;;6.28;;
82409;SDS011;72049;51.766;6.846;2023-09-08T02:46:50;9.55;;;6.10;;
82409;SDS011;72049;51.766;6.846;2023-09-08T02:49:15;8.75;;;6.05;;
82409;SDS011;72049;51.766;6.846;2023-09-08T02:51:41;8.15;;;6.10;;
82409;SDS011;72049;51.766;6.846;2023-09-08T02:54:07;10.05;;;6.85;;
82409;SDS011;72049;51.766;6.846;2023-09-08T02:56:36;9.20;;;6.07;;
82409;SDS011;72049;51.766;6.846;2023-09-08T02:59:01;9.45;;;6.40;;
82409;SDS011;72049;51.766;6.846;2023-09-08T03:01:30;10.38;;;6.35;;
82409;SDS011;72049;51.766;6.846;2023-09-08T03:03:56;18.02;;;7.63;;
82409;SDS011;72049;51.766;6.846;2023-09-08T03:06:22;10.13;;;6.68;;
82409;SDS011;72049;51.766;6.846;2023-09-08T03:08:48;10.18;;;6.88;;
82409;SDS011;72049;51.766;6.846;2023-09-08T03:11:14;9.07;;;6.47;;
82409;SDS011;72049;51.766;6.846;2023-09-08T03:13:39;10.57;;;7.13;;
82409;SDS011;72049;51.766;6.846;2023-09-08T03:16:08;10.70;;;6.78;;
82409;SDS011;72049;51.766;6.846;2023-09-08T03:18:34;12.73;;;6.70;;
82409;SDS011;72049;51.766;6.846;2023-09-08T03:21:01;11.63;;;6.93;;
82409;SDS011;72049;51.766;6.846;2023-09-08T03:23:34;11.20;;;6.63;;
82409;SDS011;72049;51.766;6.846;2023-09-08T03:26:02;13.25;;;7.95;;
82409;SDS011;72049;51.766;6.846;2023-09-08T03:28:31;12.13;;;6.72;;
82409;SDS011;72049;51.766;6.846;2023-09-08T03:30:59;10.40;;;6.90;;
82409;SDS011;72049;51.766;6.846;2023-09-08T03:33:24;10.87;;;6.87;;
82409;SDS011;72049;51.766;6.846;2023-09-08T03:35:49;11.65;;;7.25;;
82409;SDS011;72049;51.766;6.846;2023-09-08T03:38:14;9.87;;;7.07;;
82409;SDS011;72049;51.766;6.846;2023-09-08T03:40:43;12.80;;;7.07;;
82409;SDS011;72049;51.766;6.846;2023-09-08T03:43:08;10.88;;;7.10;;
82409;SDS011;72049;51.766;6.846;2023-09-08T03:45:34;12.82;;;7.25;;
82409;SDS011;72049;51.766;6.846;2023-09-08T03:48:00;14.45;;;8.07;;
82409;SDS011;72049;51.766;6.846;2023-09-08T03:51:09;14.40;;;7.22;;
82409;SDS011;72049;51.766;6.846;2023-09-08T03:53:34;13.07;;;7.75;;
82409;SDS011;72049;51.766;6.846;2023-09-08T03:56:00;11.33;;;7.37;;
82409;SDS011;72049;51.766;6.846;2023-09-08T03:58:28;11.07;;;7.07;;
82409;SDS011;72049;51.766;6.846;2023-09-08T04:00:54;12.25;;;7.60;;
82409;SDS011;72049;51.766;6.846;2023-09-08T04:03:19;10.60;;;7.22;;
82409;SDS011;72049;51.766;6.846;2023-09-08T04:05:45;11.73;;;7.50;;
82409;SDS011;72049;51.766;6.846;2023-09-08T04:08:13;13.25;;;7.93;;
82409;SDS011;72049;51.766;6.846;2023-09-08T04:10:38;10.43;;;6.80;;
82409;SDS011;72049;51.766;6.846;2023-09-08T04:13:04;10.13;;;6.73;;
82409;SDS011;72049;51.766;6.846;2023-09-08T04:15:34;11.43;;;7.30;;
82409;SDS011;72049;51.766;6.846;2023-09-08T04:18:00;12.25;;;7.57;;
82409;SDS011;72049;51.766;6.846;2023-09-08T04:20:32;12.88;;;7.53;;
82409;SDS011;72049;51.766;6.846;2023-09-08T04:23:02;11.00;;;7.13;;
82409;SDS011;72049;51.766;6.846;2023-09-08T04:25:27;10.45;;;7.38;;
82409;SDS011;72049;51.766;6.846;2023-09-08T04:27:53;10.97;;;8.03;;
82409;SDS011;72049;51.766;6.846;2023-09-08T04:30:18;11.83;;;6.80;;
82409;SDS011;72049;51.766;6.846;2023-09-08T04:32:44;10.52;;;6.90;;
82409;SDS011;72049;51.766;6.846;2023-09-08T04:35:09;11.73;;;7.53;;
82409;SDS011;72049;51.766;6.846;2023-09-08T04:37:35;10.57;;;7.13;;
82409;SDS011;72049;51.766;6.846;2023-09-08T04:40:02;10.07;;;7.43;;
82409;SDS011;72049;51.766;6.846;2023-09-08T04:42:28;13.00;;;7.55;;
82409;SDS011;72049;51.766;6.846;2023-09-08T04:44:54;11.57;;;7.47;;
82409;SDS011;72049;51.766;6.846;2023-09-08T04:47:19;12.32;;;7.47;;
82409;SDS011;72049;51.766;6.846;2023-09-08T04:49:45;11.10;;;6.90;;
82409;SDS011;72049;51.766;6.846;2023-09-08T04:52:11;12.60;;;7.70;;
82409;SDS011;72049;51.766;6.846;2023-09-08T04:54:37;10.35;;;7.13;;
82409;SDS011;72049;51.766;6.846;2023-09-08T04:57:02;11.27;;;7.75;;
82409;SDS011;72049;51.766;6.846;2023-09-08T04:59:28;12.65;;;7.60;;
82409;SDS011;72049;51.766;6.846;2023-09-08T05:01:53;11.93;;;7.30;;
82409;SDS011;72049;51.766;6.846;2023-09-08T05:04:19;11.35;;;7.35;;
82409;SDS011;72049;51.766;6.846;2023-09-08T05:06:45;11.40;;;7.38;;
82409;SDS011;72049;51.766;6.846;2023-09-08T05:09:11;12.98;;;8.13;;
82409;SDS011;72049;51.766;6.846;2023-09-08T05:11:36;10.25;;;7.03;;
82409;SDS011;72049;51.766;6.846;2023-09-08T05:14:02;12.55;;;7.22;;
82409;SDS011;72049;51.766;6.846;2023-09-08T05:16:28;13.32;;;8.20;;
82409;SDS011;72049;51.766;6.846;2023-09-08T05:19:12;13.50;;;7.07;;
82409;SDS011;72049;51.766;6.846;2023-09-08T05:21:38;14.05;;;8.05;;
82409;SDS011;72049;51.766;6.846;2023-09-08T05:24:04;12.10;;;8.18;;
82409;SDS011;72049;51.766;6.846;2023-09-08T05:26:30;12.05;;;7.72;;
82409;SDS011;72049;51.766;6.846;2023-09-08T05:28:55;12.27;;;8.15;;
82409;SDS011;72049;51.766;6.846;2023-09-08T05:31:21;10.43;;;7.22;;
82409;SDS011;72049;51.766;6.846;2023-09-08T05:33:46;15.40;;;7.97;;
82409;SDS011;72049;51.766;6.846;2023-09-08T05:36:12;11.80;;;7.72;;
82409;SDS011;72049;51.766;6.846;2023-09-08T05:38:37;10.63;;;6.53;;
82409;SDS011;72049;51.766;6.846;2023-09-08T05:41:02;12.73;;;7.13;;
82409;SDS011;72049;51.766;6.846;2023-09-08T05:43:28;11.93;;;7.60;;
82409;SDS011;72049;51.766;6.846;2023-09-08T05:45:54;12.90;;;7.25;;
82409;SDS011;72049;51.766;6.846;2023-09-08T05:48:19;13.07;;;7.23;;
82409;SDS011;72049;51.766;6.846;2023-09-08T05:50:45;10.37;;;7.10;;
82409;SDS011;72049;51.766;6.846;2023-09-08T05:53:11;13.57;;;7.78;;
82409;SDS011;72049;51.766;6.846;2023-09-08T05:55:36;12.48;;;8.10;;
82409;SDS011;72049;51.766;6.846;2023-09-08T05:58:02;11.70;;;7.43;;
82409;SDS011;72049;51.766;6.846;2023-09-08T06:00:27;11.80;;;7.55;;
82409;SDS011;72049;51.766;6.846;2023-09-08T06:02:53;12.00;;;7.30;;
82409;SDS011;72049;51.766;6.846;2023-09-08T06:05:18;12.25;;;7.45;;
82409;SDS011;72049;51.766;6.846;2023-09-08T06:07:44;11.27;;;7.43;;
82409;SDS011;72049;51.766;6.846;2023-09-08T06:10:09;12.25;;;7.43;;
82409;SDS011;72049;51.766;6.846;2023-09-08T06:12:35;9.90;;;6.97;;
82409;SDS011;72049;51.766;6.846;2023-09-08T06:15:01;12.33;;;7.23;;
82409;SDS011;72049;51.766;6.846;2023-09-08T06:17:28;12.75;;;7.18;;
82409;SDS011;72049;51.766;6.846;2023-09-08T06:19:54;12.20;;;7.07;;
82409;SDS011;72049;51.766;6.846;2023-09-08T06:22:20;9.75;;;6.35;;
82409;SDS011;72049;51.766;6.846;2023-09-08T06:24:45;10.20;;;7.00;;
82409;SDS011;72049;51.766;6.846;2023-09-08T06:27:10;10.40;;;6.40;;
82409;SDS011;72049;51.766;6.846;2023-09-08T06:29:36;11.98;;;7.07;;
82409;SDS011;72049;51.766;6.846;2023-09-08T06:32:02;10.35;;;7.10;;
82409;SDS011;72049;51.766;6.846;2023-09-08T06:34:27;11.40;;;6.63;;
82409;SDS011;72049;51.766;6.846;2023-09-08T06:36:53;12.03;;;6.90;;
82409;SDS011;72049;51.766;6.846;2023-09-08T06:39:18;9.63;;;6.50;;
82409;SDS011;72049;51.766;6.846;2023-09-08T06:41:44;11.27;;;6.63;;
82409;SDS011;72049;51.766;6.846;2023-09-08T06:44:12;12.40;;;6.72;;
82409;SDS011;72049;51.766;6.846;2023-09-08T06:46:38;10.67;;;6.80;;
82409;SDS011;72049;51.766;6.846;2023-09-08T06:49:03;10.80;;;6.37;;
82409;SDS011;72049;51.766;6.846;2023-09-08T06:51:29;11.00;;;6.50;;
82409;SDS011;72049;51.766;6.846;2023-09-08T06:53:55;10.97;;;6.40;;
82409;SDS011;72049;51.766;6.846;2023-09-08T06:56:22;9.30;;;5.70;;
82409;SDS011;72049;51.766;6.846;2023-09-08T06:58:47;8.65;;;5.97;;
82409;SDS011;72049;51.766;6.846;2023-09-08T07:01:12;12.83;;;6.53;;
82409;SDS011;72049;51.766;6.846;2023-09-08T07:03:38;12.05;;;6.35;;
82409;SDS011;72049;51.766;6.846;2023-09-08T07:06:04;8.63;;;6.07;;
82409;SDS011;72049;51.766;6.846;2023-09-08T07:08:30;8.30;;;6.00;;
82409;SDS011;72049;51.766;6.846;2023-09-08T07:10:55;9.80;;;6.25;;
82409;SDS011;72049;51.766;6.846;2023-09-08T07:13:21;8.65;;;5.10;;
82409;SDS011;72049;51.766;6.846;2023-09-08T07:15:46;9.73;;;5.93;;
82409;SDS011;72049;51.766;6.846;2023-09-08T07:18:11;9.23;;;5.68;;
82409;SDS011;72049;51.766;6.846;2023-09-08T07:20:37;9.13;;;5.45;;
82409;SDS011;72049;51.766;6.846;2023-09-08T07:23:02;10.30;;;5.45;;
82409;SDS011;72049;51.766;6.846;2023-09-08T07:25:28;7.95;;;4.90;;
82409;SDS011;72049;51.766;6.846;2023-09-08T07:27:53;7.85;;;4.93;;
82409;SDS011;72049;51.766;6.846;2023-09-08T07:30:20;9.20;;;4.60;;
82409;SDS011;72049;51.766;6.846;2023-09-08T07:32:45;9.68;;;5.03;;
82409;SDS011;72049;51.766;6.846;2023-09-08T07:35:10;6.87;;;5.13;;
82409;SDS011;72049;51.766;6.846;2023-09-08T07:37:41;7.75;;;5.57;;
82409;SDS011;72049;51.766;6.846;2023-09-08T07:40:07;6.53;;;4.27;;
82409;SDS011;72049;51.766;6.846;2023-09-08T07:42:33;9.57;;;4.95;;
82409;SDS011;72049;51.766;6.846;2023-09-08T07:44:58;6.60;;;4.47;;
82409;SDS011;72049;51.766;6.846;2023-09-08T07:47:24;6.57;;;4.50;;
82409;SDS011;72049;51.766;6.846;2023-09-08T07:49:49;6.70;;;4.70;;
82409;SDS011;72049;51.766;6.846;2023-09-08T07:52:14;6.57;;;4.70;;
82409;SDS011;72049;51.766;6.846;2023-09-08T07:54:40;9.03;;;4.40;;
82409;SDS011;72049;51.766;6.846;2023-09-08T07:57:05;6.10;;;4.30;;
82409;SDS011;72049;51.766;6.846;2023-09-08T07:59:30;8.27;;;4.87;;
82409;SDS011;72049;51.766;6.846;2023-09-08T08:01:59;5.23;;;4.20;;
82409;SDS011;72049;51.766;6.846;2023-09-08T08:04:24;8.13;;;4.40;;
82409;SDS011;72049;51.766;6.846;2023-09-08T08:06:49;7.70;;;4.63;;
82409;SDS011;72049;51.766;6.846;2023-09-08T08:09:14;6.70;;;4.10;;
82409;SDS011;72049;51.766;6.846;2023-09-08T08:11:40;6.55;;;4.05;;
82409;SDS011;72049;51.766;6.846;2023-09-08T08:14:05;6.40;;;4.05;;
82409;SDS011;72049;51.766;6.846;2023-09-08T08:16:30;5.00;;;3.90;;
82409;SDS011;72049;51.766;6.846;2023-09-08T08:18:55;6.27;;;3.73;;
82409;SDS011;72049;51.766;6.846;2023-09-08T08:21:21;5.90;;;3.73;;
82409;SDS011;72049;51.766;6.846;2023-09-08T08:23:48;6.28;;;3.50;;
82409;SDS011;72049;51.766;6.846;2023-09-08T08:26:13;6.20;;;3.75;;
82409;SDS011;72049;51.766;6.846;2023-09-08T08:28:38;5.97;;;3.50;;
82409;SDS011;72049;51.766;6.846;2023-09-08T08:31:03;5.93;;;3.63;;
82409;SDS011;72049;51.766;6.846;2023-09-08T08:33:29;8.05;;;3.08;;
82409;SDS011;72049;51.766;6.846;2023-09-08T08:35:55;5.65;;;3.53;;
82409;SDS011;72049;51.766;6.846;2023-09-08T08:38:20;5.93;;;3.33;;
82409;SDS011;72049;51.766;6.846;2023-09-08T08:40:45;5.72;;;3.40;;
82409;SDS011;72049;51.766;6.846;2023-09-08T08:43:11;6.23;;;3.97;;
82409;SDS011;72049;51.766;6.846;2023-09-08T08:45:37;7.63;;;4.28;;
82409;SDS011;72049;51.766;6.846;2023-09-08T08:48:03;5.10;;;3.38;;
82409;SDS011;72049;51.766;6.846;2023-09-08T08:50:29;7.05;;;4.07;;
82409;SDS011;72049;51.766;6.846;2023-09-08T08:52:55;5.85;;;3.67;;
82409;SDS011;72049;51.766;6.846;2023-09-08T08:55:20;5.83;;;3.50;;
82409;SDS011;72049;51.766;6.846;2023-09-08T08:57:45;5.87;;;4.20;;
82409;SDS011;72049;51.766;6.846;2023-09-08T09:00:11;6.85;;;4.07;;
82409;SDS011;72049;51.766;6.846;2023-09-08T09:02:40;7.10;;;4.10;;
82409;SDS011;72049;51.766;6.846;2023-09-08T09:05:07;6.15;;;3.97;;
82409;SDS011;72049;51.766;6.846;2023-09-08T09:07:36;6.03;;;3.55;;
82409;SDS011;72049;51.766;6.846;2023-09-08T09:10:02;6.13;;;3.85;;
82409;SDS011;72049;51.766;6.846;2023-09-08T09:12:29;6.43;;;3.72;;
82409;SDS011;72049;51.766;6.846;2023-09-08T09:14:56;6.85;;;3.80;;
82409;SDS011;72049;51.766;6.846;2023-09-08T09:17:26;5.38;;;3.40;;
82409;SDS011;72049;51.766;6.846;2023-09-08T09:20:11;6.38;;;3.70;;
82409;SDS011;72049;51.766;6.846;2023-09-08T09:22:37;8.35;;;4.75;;
82409;SDS011;72049;51.766;6.846;2023-09-08T09:25:06;4.75;;;3.47;;
82409;SDS011;72049;51.766;6.846;2023-09-08T09:27:33;6.35;;;3.92;;
82409;SDS011;72049;51.766;6.846;2023-09-08T09:30:05;6.72;;;4.30;;
82409;SDS011;72049;51.766;6.846;2023-09-08T09:32:31;5.70;;;3.70;;
82409;SDS011;72049;51.766;6.846;2023-09-08T09:35:01;7.22;;;4.20;;
82409;SDS011;72049;51.766;6.846;2023-09-08T09:37:36;7.63;;;3.88;;
82409;SDS011;72049;51.766;6.846;2023-09-08T09:40:08;6.43;;;4.15;;
82409;SDS011;72049;51.766;6.846;2023-09-08T09:42:38;7.35;;;3.83;;
82409;SDS011;72049;51.766;6.846;2023-09-08T09:45:08;7.40;;;4.13;;
82409;SDS011;72049;51.766;6.846;2023-09-08T09:47:43;7.28;;;3.92;;
82409;SDS011;72049;51.766;6.846;2023-09-08T09:50:08;6.28;;;3.67;;
82409;SDS011;72049;51.766;6.846;2023-09-08T09:52:34;6.25;;;3.72;;
82409;SDS011;72049;51.766;6.846;2023-09-08T09:55:04;6.63;;;3.95;;
82409;SDS011;72049;51.766;6.846;2023-09-08T09:57:32;6.28;;;3.45;;
82409;SDS011;72049;51.766;6.846;2023-09-08T10:00:04;7.53;;;3.80;;
82409;SDS011;72049;51.766;6.846;2023-09-08T10:02:34;8.43;;;3.30;;
82409;SDS011;72049;51.766;6.846;2023-09-08T10:05:09;7.68;;;3.80;;
82409;SDS011;72049;51.766;6.846;2023-09-08T10:07:35;7.28;;;3.72;;
82409;SDS011;72049;51.766;6.846;2023-09-08T10:10:00;5.18;;;3.40;;
82409;SDS011;72049;51.766;6.846;2023-09-08T10:12:26;7.70;;;3.95;;
82409;SDS011;72049;51.766;6.846;2023-09-08T10:14:59;6.78;;;3.67;;
82409;SDS011;72049;51.766;6.846;2023-09-08T10:17:35;7.15;;;4.00;;
82409;SDS011;72049;51.766;6.846;2023-09-08T10:20:01;8.43;;;3.83;;
82409;SDS011;72049;51.766;6.846;2023-09-08T10:22:33;8.00;;;3.92;;
82409;SDS011;72049;51.766;6.846;2023-09-08T10:25:11;5.85;;;4.05;;
82409;SDS011;72049;51.766;6.846;2023-09-08T10:27:37;5.43;;;3.33;;
82409;SDS011;72049;51.766;6.846;2023-09-08T10:30:04;6.22;;;3.50;;
82409;SDS011;72049;51.766;6.846;2023-09-08T10:34:58;5.73;;;3.73;;
82409;SDS011;72049;51.766;6.846;2023-09-08T10:37:26;8.00;;;3.85;;
82409;SDS011;72049;51.766;6.846;2023-09-08T10:39:54;7.93;;;3.42;;
82409;SDS011;72049;51.766;6.846;2023-09-08T10:42:21;7.18;;;4.07;;
82409;SDS011;72049;51.766;6.846;2023-09-08T10:47:18;6.72;;;3.75;;
82409;SDS011;72049;51.766;6.846;2023-09-08T10:49:44;6.75;;;3.95;;
82409;SDS011;72049;51.766;6.846;2023-09-08T10:52:12;7.80;;;4.40;;
82409;SDS011;72049;51.766;6.846;2023-09-08T10:54:44;5.97;;;3.97;;
82409;SDS011;72049;51.766;6.846;2023-09-08T10:57:13;8.75;;;4.22;;
82409;SDS011;72049;51.766;6.846;2023-09-08T11:00:01;5.72;;;3.90;;
82409;SDS011;72049;51.766;6.846;2023-09-08T11:05:06;7.28;;;3.45;;
82409;SDS011;72049;51.766;6.846;2023-09-08T11:07:32;5.82;;;3.60;;
82409;SDS011;72049;51.766;6.846;2023-09-08T11:10:01;8.13;;;3.97;;
82409;SDS011;72049;51.766;6.846;2023-09-08T11:12:27;6.88;;;3.90;;
82409;SDS011;72049;51.766;6.846;2023-09-08T11:14:52;5.57;;;3.97;;
82409;SDS011;72049;51.766;6.846;2023-09-08T11:17:18;5.68;;;3.90;;
82409;SDS011;72049;51.766;6.846;2023-09-08T11:19:49;7.40;;;3.97;;
82409;SDS011;72049;51.766;6.846;2023-09-08T11:22:18;7.45;;;3.88;;
82409;SDS011;72049;51.766;6.846;2023-09-08T11:24:46;6.32;;;3.55;;
82409;SDS011;72049;51.766;6.846;2023-09-08T11:27:13;6.30;;;4.03;;
82409;SDS011;72049;51.766;6.846;2023-09-08T11:29:38;6.15;;;4.05;;
82409;SDS011;72049;51.766;6.846;2023-09-08T11:32:07;6.25;;;4.07;;
82409;SDS011;72049;51.766;6.846;2023-09-08T11:34:34;7.78;;;4.20;;
82409;SDS011;72049;51.766;6.846;2023-09-08T11:36:59;5.63;;;3.80;;
82409;SDS011;72049;51.766;6.846;2023-09-08T11:39:24;6.57;;;3.77;;
82409;SDS011;72049;51.766;6.846;2023-09-08T11:41:53;7.35;;;4.18;;
82409;SDS011;72049;51.766;6.846;2023-09-08T11:44:19;5.03;;;3.63;;
82409;SDS011;72049;51.766;6.846;2023-09-08T11:46:48;6.18;;;3.58;;
82409;SDS011;72049;51.766;6.846;2023-09-08T12:02:44;6.03;;;3.65;;
82409;SDS011;72049;51.766;6.846;2023-09-08T12:05:23;6.55;;;3.55;;
82409;SDS011;72049;51.766;6.846;2023-09-08T12:07:53;5.57;;;3.47;;
82409;SDS011;72049;51.766;6.846;2023-09-08T12:10:18;6.32;;;3.70;;
82409;SDS011;72049;51.766;6.846;2023-09-08T12:12:45;4.75;;;3.10;;
82409;SDS011;72049;51.766;6.846;2023-09-08T12:15:10;5.20;;;3.65;;
82409;SDS011;72049;51.766;6.846;2023-09-08T12:18:10;5.85;;;3.88;;
82409;SDS011;72049;51.766;6.846;2023-09-08T12:20:28;5.88;;;3.80;;
82409;SDS011;72049;51.766;6.846;2023-09-08T12:22:56;5.47;;;3.80;;
82409;SDS011;72049;51.766;6.846;2023-09-08T12:25:22;4.97;;;3.60;;
82409;SDS011;72049;51.766;6.846;2023-09-08T12:27:51;7.28;;;3.60;;
82409;SDS011;72049;51.766;6.846;2023-09-08T12:30:18;6.00;;;4.32;;
82409;SDS011;72049;51.766;6.846;2023-09-08T12:32:45;5.97;;;4.03;;
82409;SDS011;72049;51.766;6.846;2023-09-08T12:35:10;5.57;;;4.03;;
82409;SDS011;72049;51.766;6.846;2023-09-08T12:37:39;5.45;;;3.55;;
82409;SDS011;72049;51.766;6.846;2023-09-08T12:40:05;5.55;;;3.70;;
82409;SDS011;72049;51.766;6.846;2023-09-08T12:42:30;7.28;;;4.50;;
82409;SDS011;72049;51.766;6.846;2023-09-08T12:44:56;5.88;;;3.78;;
82409;SDS011;72049;51.766;6.846;2023-09-08T12:47:24;6.05;;;3.92;;
82409;SDS011;72049;51.766;6.846;2023-09-08T12:49:50;4.82;;;3.65;;
82409;SDS011;72049;51.766;6.846;2023-09-08T12:52:17;6.50;;;3.60;;
82409;SDS011;72049;51.766;6.846;2023-09-08T12:54:45;5.95;;;3.75;;
82409;SDS011;72049;51.766;6.846;2023-09-08T12:57:10;6.25;;;3.67;;
82409;SDS011;72049;51.766;6.846;2023-09-08T12:59:46;86.60;;;14.80;;
82409;SDS011;72049;51.766;6.846;2023-09-08T13:02:12;5.97;;;4.38;;
82409;SDS011;72049;51.766;6.846;2023-09-08T13:04:40;6.35;;;4.05;;
82409;SDS011;72049;51.766;6.846;2023-09-08T13:07:08;5.93;;;4.25;;
82409;SDS011;72049;51.766;6.846;2023-09-08T13:09:34;5.65;;;3.90;;
82409;SDS011;72049;51.766;6.846;2023-09-08T13:11:59;22.77;;;5.70;;
82409;SDS011;72049;51.766;6.846;2023-09-08T13:14:28;7.30;;;4.13;;
82409;SDS011;72049;51.766;6.846;2023-09-08T13:16:54;70.15;;;11.00;;
82409;SDS011;72049;51.766;6.846;2023-09-08T13:19:27;13.18;;;4.03;;
82409;SDS011;72049;51.766;6.846;2023-09-08T13:21:54;6.38;;;4.03;;
82409;SDS011;72049;51.766;6.846;2023-09-08T13:24:27;5.45;;;3.67;;
82409;SDS011;72049;51.766;6.846;2023-09-08T13:26:53;5.93;;;4.93;;
82409;SDS011;72049;51.766;6.846;2023-09-08T13:29:24;5.32;;;3.55;;
82409;SDS011;72049;51.766;6.846;2023-09-08T13:31:59;6.32;;;4.10;;
82409;SDS011;72049;51.766;6.846;2023-09-08T13:34:28;6.47;;;4.25;;
82409;SDS011;72049;51.766;6.846;2023-09-08T13:37:30;7.25;;;4.43;;
82409;SDS011;72049;51.766;6.846;2023-09-08T13:40:07;8.00;;;4.53;;
82409;SDS011;72049;51.766;6.846;2023-09-08T13:42:35;7.35;;;4.22;;
82409;SDS011;72049;51.766;6.846;2023-09-08T13:45:00;6.00;;;4.28;;
82409;SDS011;72049;51.766;6.846;2023-09-08T13:47:26;6.65;;;4.30;;
82409;SDS011;72049;51.766;6.846;2023-09-08T13:49:54;5.97;;;4.13;;
82409;SDS011;72049;51.766;6.846;2023-09-08T13:52:19;5.53;;;4.05;;
82409;SDS011;72049;51.766;6.846;2023-09-08T13:54:45;5.53;;;4.03;;
82409;SDS011;72049;51.766;6.846;2023-09-08T13:57:17;4.95;;;3.75;;
82409;SDS011;72049;51.766;6.846;2023-09-08T13:59:50;6.45;;;3.92;;
82409;SDS011;72049;51.766;6.846;2023-09-08T14:02:16;6.60;;;4.22;;
82409;SDS011;72049;51.766;6.846;2023-09-08T14:04:59;5.35;;;3.90;;
82409;SDS011;72049;51.766;6.846;2023-09-08T14:07:34;8.73;;;4.20;;
82409;SDS011;72049;51.766;6.846;2023-09-08T14:10:07;5.40;;;3.97;;
82409;SDS011;72049;51.766;6.846;2023-09-08T14:12:34;5.78;;;4.20;;
82409;SDS011;72049;51.766;6.846;2023-09-08T14:15:03;8.68;;;4.15;;
82409;SDS011;72049;51.766;6.846;2023-09-08T14:17:32;6.60;;;3.92;;
82409;SDS011;72049;51.766;6.846;2023-09-08T14:19:58;5.50;;;3.80;;
82409;SDS011;72049;51.766;6.846;2023-09-08T14:22:30;6.43;;;4.50;;
82409;SDS011;72049;51.766;6.846;2023-09-08T14:24:56;8.98;;;4.25;;
82409;SDS011;72049;51.766;6.846;2023-09-08T14:27:21;7.38;;;3.92;;
82409;SDS011;72049;51.766;6.846;2023-09-08T14:29:50;5.72;;;3.63;;
82409;SDS011;72049;51.766;6.846;2023-09-08T14:32:15;6.23;;;3.90;;
82409;SDS011;72049;51.766;6.846;2023-09-08T14:34:41;5.13;;;3.80;;
82409;SDS011;72049;51.766;6.846;2023-09-08T14:37:09;5.28;;;4.10;;
82409;SDS011;72049;51.766;6.846;2023-09-08T14:39:34;8.60;;;3.83;;
82409;SDS011;72049;51.766;6.846;2023-09-08T14:42:08;7.17;;;4.00;;
82409;SDS011;72049;51.766;6.846;2023-09-08T14:44:34;5.53;;;4.25;;
82409;SDS011;72049;51.766;6.846;2023-09-08T14:47:00;6.72;;;4.20;;
82409;SDS011;72049;51.766;6.846;2023-09-08T14:49:25;5.18;;;3.85;;
82409;SDS011;72049;51.766;6.846;2023-09-08T14:51:51;6.32;;;4.13;;
82409;SDS011;72049;51.766;6.846;2023-09-08T14:54:22;7.38;;;4.10;;
82409;SDS011;72049;51.766;6.846;2023-09-08T14:56:47;6.13;;;3.65;;
82409;SDS011;72049;51.766;6.846;2023-09-08T14:59:13;4.90;;;3.72;;
82409;SDS011;72049;51.766;6.846;2023-09-08T15:01:43;6.53;;;4.25;;
82409;SDS011;72049;51.766;6.846;2023-09-08T15:04:16;7.22;;;3.95;;
82409;SDS011;72049;51.766;6.846;2023-09-08T15:06:42;5.72;;;4.10;;
82409;SDS011;72049;51.766;6.846;2023-09-08T15:09:07;6.07;;;3.75;;
82409;SDS011;72049;51.766;6.846;2023-09-08T15:11:33;6.13;;;4.28;;